sensor_id;sensor_type;location;lat;lon;timestamp;pressure;altitude;pressure_sealevel;temperature;humidity
65173;BME280;51758;52.218;5.172;2023-02-21T00:00:32;100179.50;;;8.10;100.00
65173;BME280;51758;52.218;5.172;2023-02-21T00:03:17;100176.94;;;8.02;100.00
65173;BME280;51758;52.218;5.172;2023-02-21T00:06:06;100119.16;;;7.63;100.00
65173;BME280;51758;52.218;5.172;2023-02-21T00:08:52;100174.53;;;8.01;100.00
65173;BME280;51758;52.218;5.172;2023-02-21T00:11:40;100171.75;;;8.02;100.00
65173;BME280;51758;52.218;5.172;2023-02-21T00:14:26;100175.63;;;8.06;100.00
65173;BME280;51758;52.218;5.172;2023-02-21T00:17:11;100164.88;;;8.09;100.00
65173;BME280;51758;52.218;5.172;2023-02-21T00:19:57;100170.31;;;8.00;100.00
65173;BME280;51758;52.218;5.172;2023-02-21T00:22:45;100174.09;;;7.97;100.00
65173;BME280;51758;52.218;5.172;2023-02-21T00:25:30;100175.34;;;8.01;100.00
65173;BME280;51758;52.218;5.172;2023-02-21T00:28:16;100156.09;;;8.10;100.00
65173;BME280;51758;52.218;5.172;2023-02-21T00:31:01;100025.06;;;7.23;100.00
65173;BME280;51758;52.218;5.172;2023-02-21T00:33:47;100156.16;;;8.02;100.00
65173;BME280;51758;52.218;5.172;2023-02-21T00:36:32;100158.22;;;8.07;100.00
65173;BME280;51758;52.218;5.172;2023-02-21T00:39:18;100156.31;;;8.01;100.00
65173;BME280;51758;52.218;5.172;2023-02-21T00:42:04;100150.59;;;8.05;100.00
65173;BME280;51758;52.218;5.172;2023-02-21T00:44:49;100148.00;;;8.05;100.00
65173;BME280;51758;52.218;5.172;2023-02-21T00:47:35;100141.28;;;8.11;100.00
65173;BME280;51758;52.218;5.172;2023-02-21T00:50:20;100120.81;;;7.78;100.00
65173;BME280;51758;52.218;5.172;2023-02-21T00:53:05;100125.50;;;8.12;100.00
65173;BME280;51758;52.218;5.172;2023-02-21T00:55:52;100124.78;;;8.04;100.00
65173;BME280;51758;52.218;5.172;2023-02-21T00:58:37;100115.47;;;8.09;100.00
65173;BME280;51758;52.218;5.172;2023-02-21T01:01:22;100119.88;;;8.09;100.00
65173;BME280;51758;52.218;5.172;2023-02-21T01:04:08;100092.59;;;8.05;100.00
65173;BME280;51758;52.218;5.172;2023-02-21T01:06:54;100111.91;;;8.10;100.00
65173;BME280;51758;52.218;5.172;2023-02-21T01:09:39;100122.19;;;8.04;100.00
65173;BME280;51758;52.218;5.172;2023-02-21T01:12:26;100110.69;;;7.98;100.00
65173;BME280;51758;52.218;5.172;2023-02-21T01:15:11;100110.09;;;7.96;100.00
65173;BME280;51758;52.218;5.172;2023-02-21T01:17:56;100075.13;;;7.84;100.00
65173;BME280;51758;52.218;5.172;2023-02-21T01:20:41;100097.53;;;8.00;100.00
65173;BME280;51758;52.218;5.172;2023-02-21T01:23:27;100093.41;;;8.05;100.00
65173;BME280;51758;52.218;5.172;2023-02-21T01:26:12;100065.44;;;8.07;100.00
65173;BME280;51758;52.218;5.172;2023-02-21T01:28:59;100064.81;;;8.05;100.00
65173;BME280;51758;52.218;5.172;2023-02-21T01:31:44;100058.28;;;8.09;100.00
65173;BME280;51758;52.218;5.172;2023-02-21T01:34:29;100049.03;;;8.07;100.00
65173;BME280;51758;52.218;5.172;2023-02-21T01:37:15;100050.19;;;8.04;100.00
65173;BME280;51758;52.218;5.172;2023-02-21T01:40:00;100052.81;;;8.04;100.00
65173;BME280;51758;52.218;5.172;2023-02-21T01:42:46;100011.41;;;7.73;100.00
65173;BME280;51758;52.218;5.172;2023-02-21T01:45:44;100055.69;;;8.09;100.00
65173;BME280;51758;52.218;5.172;2023-02-21T01:48:31;99957.50;;;7.46;100.00
65173;BME280;51758;52.218;5.172;2023-02-21T01:51:23;100044.66;;;8.07;100.00
65173;BME280;51758;52.218;5.172;2023-02-21T01:54:09;100048.88;;;8.08;100.00
65173;BME280;51758;52.218;5.172;2023-02-21T01:56:55;100052.53;;;7.99;100.00
65173;BME280;51758;52.218;5.172;2023-02-21T01:59:43;99888.63;;;7.06;100.00
65173;BME280;51758;52.218;5.172;2023-02-21T02:02:35;100045.19;;;8.03;100.00
65173;BME280;51758;52.218;5.172;2023-02-21T02:05:22;100025.28;;;8.10;100.00
65173;BME280;51758;52.218;5.172;2023-02-21T02:08:08;100025.09;;;8.11;100.00
65173;BME280;51758;52.218;5.172;2023-02-21T02:11:13;100024.03;;;8.06;100.00
65173;BME280;51758;52.218;5.172;2023-02-21T02:14:17;100017.03;;;8.06;100.00
65173;BME280;51758;52.218;5.172;2023-02-21T02:16:56;100013.19;;;8.02;100.00
65173;BME280;51758;52.218;5.172;2023-02-21T02:19:59;100010.13;;;7.99;100.00
65173;BME280;51758;52.218;5.172;2023-02-21T02:22:50;100007.19;;;8.02;100.00
65173;BME280;51758;52.218;5.172;2023-02-21T02:25:31;100026.00;;;8.04;100.00
65173;BME280;51758;52.218;5.172;2023-02-21T02:28:30;99993.47;;;8.08;100.00
65173;BME280;51758;52.218;5.172;2023-02-21T02:31:23;99992.84;;;8.06;100.00
65173;BME280;51758;52.218;5.172;2023-02-21T02:34:31;99990.69;;;8.09;100.00
65173;BME280;51758;52.218;5.172;2023-02-21T02:37:09;99987.47;;;8.07;100.00
65173;BME280;51758;52.218;5.172;2023-02-21T02:39:40;99995.44;;;8.06;100.00
65173;BME280;51758;52.218;5.172;2023-02-21T02:42:14;99992.66;;;8.07;100.00
65173;BME280;51758;52.218;5.172;2023-02-21T02:44:48;100003.31;;;8.12;100.00
65173;BME280;51758;52.218;5.172;2023-02-21T02:47:18;100001.63;;;8.05;100.00
65173;BME280;51758;52.218;5.172;2023-02-21T02:49:50;100010.75;;;8.01;100.00
65173;BME280;51758;52.218;5.172;2023-02-21T02:52:18;99994.00;;;8.03;100.00
65173;BME280;51758;52.218;5.172;2023-02-21T02:54:56;100003.06;;;8.07;100.00
65173;BME280;51758;52.218;5.172;2023-02-21T02:57:24;100003.13;;;7.99;100.00
65173;BME280;51758;52.218;5.172;2023-02-21T02:59:53;99992.13;;;7.97;100.00
65173;BME280;51758;52.218;5.172;2023-02-21T03:02:48;99990.59;;;8.03;100.00
65173;BME280;51758;52.218;5.172;2023-02-21T03:05:34;99867.03;;;7.35;100.00
65173;BME280;51758;52.218;5.172;2023-02-21T03:08:13;99982.25;;;8.07;100.00
65173;BME280;51758;52.218;5.172;2023-02-21T03:10:51;99972.81;;;8.21;100.00
65173;BME280;51758;52.218;5.172;2023-02-21T03:13:23;99982.50;;;8.12;100.00
65173;BME280;51758;52.218;5.172;2023-02-21T03:15:56;99968.47;;;8.07;100.00
65173;BME280;51758;52.218;5.172;2023-02-21T03:18:29;99971.63;;;8.23;100.00
65173;BME280;51758;52.218;5.172;2023-02-21T03:21:04;99887.91;;;7.56;100.00
65173;BME280;51758;52.218;5.172;2023-02-21T03:23:36;99960.81;;;8.20;100.00
65173;BME280;51758;52.218;5.172;2023-02-21T03:26:07;99934.06;;;7.90;100.00
65173;BME280;51758;52.218;5.172;2023-02-21T03:28:37;99971.75;;;8.15;100.00
65173;BME280;51758;52.218;5.172;2023-02-21T03:31:07;99972.28;;;8.11;100.00
65173;BME280;51758;52.218;5.172;2023-02-21T03:33:37;99965.28;;;8.11;100.00
65173;BME280;51758;52.218;5.172;2023-02-21T03:36:08;99961.09;;;8.10;100.00
65173;BME280;51758;52.218;5.172;2023-02-21T03:38:36;99962.31;;;8.14;100.00
65173;BME280;51758;52.218;5.172;2023-02-21T03:41:05;99962.31;;;8.14;100.00
65173;BME280;51758;52.218;5.172;2023-02-21T03:43:34;99964.56;;;8.17;100.00
65173;BME280;51758;52.218;5.172;2023-02-21T03:46:02;99965.91;;;8.13;100.00
65173;BME280;51758;52.218;5.172;2023-02-21T03:48:30;99908.19;;;7.82;100.00
65173;BME280;51758;52.218;5.172;2023-02-21T03:50:58;99958.75;;;8.15;100.00
65173;BME280;51758;52.218;5.172;2023-02-21T03:53:27;99957.94;;;8.15;100.00
65173;BME280;51758;52.218;5.172;2023-02-21T03:55:55;99840.81;;;7.44;100.00
65173;BME280;51758;52.218;5.172;2023-02-21T03:58:23;99954.28;;;8.09;100.00
65173;BME280;51758;52.218;5.172;2023-02-21T04:00:51;99947.53;;;8.15;100.00
65173;BME280;51758;52.218;5.172;2023-02-21T04:03:19;99941.19;;;8.03;100.00
65173;BME280;51758;52.218;5.172;2023-02-21T04:05:47;99947.81;;;8.20;100.00
65173;BME280;51758;52.218;5.172;2023-02-21T04:08:15;99946.25;;;8.25;100.00
65173;BME280;51758;52.218;5.172;2023-02-21T04:10:44;99949.97;;;8.16;100.00
65173;BME280;51758;52.218;5.172;2023-02-21T04:13:18;99950.03;;;8.23;100.00
65173;BME280;51758;52.218;5.172;2023-02-21T04:15:45;99934.34;;;8.16;100.00
65173;BME280;51758;52.218;5.172;2023-02-21T04:18:13;99940.00;;;8.35;100.00
65173;BME280;51758;52.218;5.172;2023-02-21T04:20:41;99836.03;;;7.48;100.00
65173;BME280;51758;52.218;5.172;2023-02-21T04:23:09;99930.50;;;8.12;100.00
65173;BME280;51758;52.218;5.172;2023-02-21T04:25:36;99946.50;;;8.09;100.00
65173;BME280;51758;52.218;5.172;2023-02-21T04:28:05;99934.72;;;8.13;100.00
65173;BME280;51758;52.218;5.172;2023-02-21T04:30:33;99921.69;;;7.92;100.00
65173;BME280;51758;52.218;5.172;2023-02-21T04:33:01;99945.88;;;8.07;100.00
65173;BME280;51758;52.218;5.172;2023-02-21T04:35:29;99922.94;;;7.96;100.00
65173;BME280;51758;52.218;5.172;2023-02-21T04:37:57;99936.09;;;8.09;100.00
65173;BME280;51758;52.218;5.172;2023-02-21T04:40:24;99927.31;;;8.10;100.00
65173;BME280;51758;52.218;5.172;2023-02-21T04:42:52;99935.28;;;8.09;100.00
65173;BME280;51758;52.218;5.172;2023-02-21T04:45:21;99931.88;;;8.08;100.00
65173;BME280;51758;52.218;5.172;2023-02-21T04:47:49;99922.38;;;8.01;100.00
65173;BME280;51758;52.218;5.172;2023-02-21T04:50:17;99915.03;;;8.04;100.00
65173;BME280;51758;52.218;5.172;2023-02-21T04:52:45;99914.53;;;8.15;100.00
65173;BME280;51758;52.218;5.172;2023-02-21T04:55:13;99907.00;;;8.20;100.00
65173;BME280;51758;52.218;5.172;2023-02-21T04:57:41;99921.00;;;8.19;100.00
65173;BME280;51758;52.218;5.172;2023-02-21T05:00:10;99911.22;;;8.21;100.00
65173;BME280;51758;52.218;5.172;2023-02-21T05:02:42;99849.28;;;7.89;100.00
65173;BME280;51758;52.218;5.172;2023-02-21T05:05:11;99919.50;;;8.10;100.00
65173;BME280;51758;52.218;5.172;2023-02-21T05:07:40;99914.91;;;8.12;100.00
65173;BME280;51758;52.218;5.172;2023-02-21T05:10:08;99912.06;;;8.28;100.00
65173;BME280;51758;52.218;5.172;2023-02-21T05:12:37;99913.91;;;8.13;100.00
65173;BME280;51758;52.218;5.172;2023-02-21T05:15:06;99907.84;;;8.06;100.00
65173;BME280;51758;52.218;5.172;2023-02-21T05:17:34;99777.91;;;7.13;100.00
65173;BME280;51758;52.218;5.172;2023-02-21T05:20:04;99923.91;;;8.10;100.00
65173;BME280;51758;52.218;5.172;2023-02-21T05:22:37;99920.84;;;8.06;100.00
65173;BME280;51758;52.218;5.172;2023-02-21T05:25:06;99889.41;;;8.01;100.00
65173;BME280;51758;52.218;5.172;2023-02-21T05:27:34;99911.94;;;8.15;100.00
65173;BME280;51758;52.218;5.172;2023-02-21T05:30:02;99908.47;;;8.08;100.00
65173;BME280;51758;52.218;5.172;2023-02-21T05:32:30;99919.78;;;8.01;100.00
65173;BME280;51758;52.218;5.172;2023-02-21T05:34:58;99913.19;;;8.19;100.00
65173;BME280;51758;52.218;5.172;2023-02-21T05:37:27;99922.34;;;8.15;100.00
65173;BME280;51758;52.218;5.172;2023-02-21T05:39:56;99918.75;;;8.16;100.00
65173;BME280;51758;52.218;5.172;2023-02-21T05:42:24;99916.34;;;8.15;100.00
65173;BME280;51758;52.218;5.172;2023-02-21T05:44:52;99902.66;;;8.06;100.00
65173;BME280;51758;52.218;5.172;2023-02-21T05:47:20;99909.22;;;8.23;100.00
65173;BME280;51758;52.218;5.172;2023-02-21T05:49:47;99910.03;;;8.24;100.00
65173;BME280;51758;52.218;5.172;2023-02-21T05:52:16;99912.38;;;8.19;100.00
65173;BME280;51758;52.218;5.172;2023-02-21T05:54:45;99918.41;;;8.19;100.00
65173;BME280;51758;52.218;5.172;2023-02-21T05:57:13;99913.63;;;8.23;100.00
65173;BME280;51758;52.218;5.172;2023-02-21T05:59:41;99922.44;;;8.22;100.00
65173;BME280;51758;52.218;5.172;2023-02-21T06:02:09;99926.13;;;8.13;100.00
65173;BME280;51758;52.218;5.172;2023-02-21T06:04:36;99916.28;;;8.08;100.00
65173;BME280;51758;52.218;5.172;2023-02-21T06:07:04;99924.09;;;8.08;100.00
65173;BME280;51758;52.218;5.172;2023-02-21T06:09:32;99882.44;;;7.87;100.00
65173;BME280;51758;52.218;5.172;2023-02-21T06:12:01;99909.16;;;8.32;100.00
65173;BME280;51758;52.218;5.172;2023-02-21T06:14:29;99914.50;;;8.09;100.00
65173;BME280;51758;52.218;5.172;2023-02-21T06:16:59;99925.94;;;8.14;100.00
65173;BME280;51758;52.218;5.172;2023-02-21T06:19:27;99913.69;;;8.08;100.00
65173;BME280;51758;52.218;5.172;2023-02-21T06:21:54;99911.81;;;8.23;100.00
65173;BME280;51758;52.218;5.172;2023-02-21T06:24:22;99913.00;;;8.21;100.00
65173;BME280;51758;52.218;5.172;2023-02-21T06:26:50;99915.63;;;8.21;100.00
65173;BME280;51758;52.218;5.172;2023-02-21T06:29:19;99923.34;;;8.14;100.00
65173;BME280;51758;52.218;5.172;2023-02-21T06:31:46;99924.09;;;8.08;100.00
65173;BME280;51758;52.218;5.172;2023-02-21T06:34:14;99922.34;;;8.15;100.00
65173;BME280;51758;52.218;5.172;2023-02-21T06:36:42;99922.84;;;8.25;100.00
65173;BME280;51758;52.218;5.172;2023-02-21T06:39:11;99920.88;;;8.27;100.00
65173;BME280;51758;52.218;5.172;2023-02-21T06:41:39;99916.03;;;8.24;100.00
65173;BME280;51758;52.218;5.172;2023-02-21T06:44:06;99932.56;;;8.17;100.00
65173;BME280;51758;52.218;5.172;2023-02-21T06:46:35;99938.75;;;8.16;100.00
65173;BME280;51758;52.218;5.172;2023-02-21T06:49:04;99927.41;;;8.23;100.00
65173;BME280;51758;52.218;5.172;2023-02-21T06:51:33;99932.25;;;8.26;100.00
65173;BME280;51758;52.218;5.172;2023-02-21T06:54:01;99909.16;;;8.17;100.00
65173;BME280;51758;52.218;5.172;2023-02-21T06:56:29;99930.59;;;8.19;100.00
65173;BME280;51758;52.218;5.172;2023-02-21T06:58:57;99954.09;;;8.11;100.00
65173;BME280;51758;52.218;5.172;2023-02-21T07:01:26;99930.28;;;8.07;100.00
65173;BME280;51758;52.218;5.172;2023-02-21T07:03:57;99930.41;;;8.20;100.00
65173;BME280;51758;52.218;5.172;2023-02-21T07:06:25;99931.63;;;8.24;100.00
65173;BME280;51758;52.218;5.172;2023-02-21T07:08:55;99939.81;;;8.21;100.00
65173;BME280;51758;52.218;5.172;2023-02-21T07:11:23;99926.13;;;8.13;100.00
65173;BME280;51758;52.218;5.172;2023-02-21T07:13:51;99926.38;;;8.18;100.00
65173;BME280;51758;52.218;5.172;2023-02-21T07:16:20;99873.50;;;7.75;100.00
65173;BME280;51758;52.218;5.172;2023-02-21T07:18:47;99914.41;;;8.02;100.00
65173;BME280;51758;52.218;5.172;2023-02-21T07:21:17;99930.16;;;8.15;100.00
65173;BME280;51758;52.218;5.172;2023-02-21T07:23:46;99918.88;;;8.08;100.00
65173;BME280;51758;52.218;5.172;2023-02-21T07:26:14;99924.94;;;8.15;100.00
65173;BME280;51758;52.218;5.172;2023-02-21T07:28:42;99914.53;;;8.15;100.00
65173;BME280;51758;52.218;5.172;2023-02-21T07:31:11;99906.69;;;8.30;100.00
65173;BME280;51758;52.218;5.172;2023-02-21T07:33:41;99909.16;;;8.32;100.00
65173;BME280;51758;52.218;5.172;2023-02-21T07:36:08;99920.16;;;8.34;100.00
65173;BME280;51758;52.218;5.172;2023-02-21T07:38:37;99918.28;;;8.27;100.00
65173;BME280;51758;52.218;5.172;2023-02-21T07:41:05;99920.25;;;8.25;100.00
65173;BME280;51758;52.218;5.172;2023-02-21T07:43:33;99907.84;;;8.06;100.00
65173;BME280;51758;52.218;5.172;2023-02-21T07:46:01;99925.38;;;8.19;100.00
65173;BME280;51758;52.218;5.172;2023-02-21T07:48:29;99813.28;;;7.50;100.00
65173;BME280;51758;52.218;5.172;2023-02-21T07:50:56;99937.47;;;8.26;100.00
65173;BME280;51758;52.218;5.172;2023-02-21T07:53:24;99927.97;;;8.34;100.00
65173;BME280;51758;52.218;5.172;2023-02-21T07:55:53;99924.44;;;8.41;100.00
65173;BME280;51758;52.218;5.172;2023-02-21T07:58:21;99935.78;;;8.34;100.00
65173;BME280;51758;52.218;5.172;2023-02-21T08:00:48;99934.41;;;8.38;100.00
65173;BME280;51758;52.218;5.172;2023-02-21T08:03:16;99948.78;;;8.34;100.00
65173;BME280;51758;52.218;5.172;2023-02-21T08:05:44;99940.06;;;8.26;100.00
65173;BME280;51758;52.218;5.172;2023-02-21T08:08:13;99944.44;;;8.41;100.00
65173;BME280;51758;52.218;5.172;2023-02-21T08:10:41;99949.00;;;8.39;100.00
65173;BME280;51758;52.218;5.172;2023-02-21T08:13:10;99917.69;;;8.11;100.00
65173;BME280;51758;52.218;5.172;2023-02-21T08:15:38;99956.00;;;8.38;100.00
65173;BME280;51758;52.218;5.172;2023-02-21T08:18:06;99960.50;;;8.30;100.00
65173;BME280;51758;52.218;5.172;2023-02-21T08:20:33;99957.00;;;8.37;100.00
65173;BME280;51758;52.218;5.172;2023-02-21T08:23:01;99958.06;;;8.43;100.00
65173;BME280;51758;52.218;5.172;2023-02-21T08:25:29;99962.72;;;8.47;100.00
65173;BME280;51758;52.218;5.172;2023-02-21T08:27:57;99963.75;;;8.53;100.00
65173;BME280;51758;52.218;5.172;2023-02-21T08:30:26;99932.56;;;8.32;100.00
65173;BME280;51758;52.218;5.172;2023-02-21T08:32:54;99958.31;;;8.48;100.00
65173;BME280;51758;52.218;5.172;2023-02-21T08:35:21;99958.50;;;8.68;100.00
65173;BME280;51758;52.218;5.172;2023-02-21T08:37:49;99972.91;;;8.49;100.00
65173;BME280;51758;52.218;5.172;2023-02-21T08:40:21;99967.94;;;8.47;100.00
65173;BME280;51758;52.218;5.172;2023-02-21T08:42:52;99966.00;;;8.56;100.00
65173;BME280;51758;52.218;5.172;2023-02-21T08:45:21;99966.66;;;8.65;100.00
65173;BME280;51758;52.218;5.172;2023-02-21T08:47:50;99972.50;;;8.45;100.00
65173;BME280;51758;52.218;5.172;2023-02-21T08:50:19;99985.59;;;8.37;100.00
65173;BME280;51758;52.218;5.172;2023-02-21T08:52:48;99972.72;;;8.50;100.00
65173;BME280;51758;52.218;5.172;2023-02-21T08:55:17;99974.78;;;8.55;100.00
65173;BME280;51758;52.218;5.172;2023-02-21T08:57:47;99973.53;;;8.51;100.00
65173;BME280;51758;52.218;5.172;2023-02-21T09:00:16;99974.91;;;8.47;100.00
65173;BME280;51758;52.218;5.172;2023-02-21T09:02:44;99984.88;;;8.43;100.00
65173;BME280;51758;52.218;5.172;2023-02-21T09:05:15;99976.91;;;8.45;100.00
65173;BME280;51758;52.218;5.172;2023-02-21T09:07:47;99977.75;;;8.52;100.00
65173;BME280;51758;52.218;5.172;2023-02-21T09:10:14;99980.72;;;8.49;100.00
65173;BME280;51758;52.218;5.172;2023-02-21T09:12:42;99975.72;;;8.47;100.00
65173;BME280;51758;52.218;5.172;2023-02-21T09:15:13;99968.66;;;8.41;100.00
65173;BME280;51758;52.218;5.172;2023-02-21T09:17:41;99973.66;;;8.43;100.00
65173;BME280;51758;52.218;5.172;2023-02-21T09:20:10;99974.13;;;8.46;100.00
65173;BME280;51758;52.218;5.172;2023-02-21T09:22:41;99961.09;;;8.46;100.00
65173;BME280;51758;52.218;5.172;2023-02-21T09:25:10;99962.22;;;8.58;100.00
65173;BME280;51758;52.218;5.172;2023-02-21T09:27:38;99953.53;;;8.51;100.00
65173;BME280;51758;52.218;5.172;2023-02-21T09:30:08;99959.63;;;8.58;100.00
65173;BME280;51758;52.218;5.172;2023-02-21T09:32:37;99944.00;;;8.58;100.00
65173;BME280;51758;52.218;5.172;2023-02-21T09:35:06;99939.81;;;8.57;100.00
65173;BME280;51758;52.218;5.172;2023-02-21T09:37:36;99945.50;;;8.68;100.00
65173;BME280;51758;52.218;5.172;2023-02-21T09:40:13;99944.31;;;8.70;100.00
65173;BME280;51758;52.218;5.172;2023-02-21T09:42:42;99936.84;;;8.60;100.00
65173;BME280;51758;52.218;5.172;2023-02-21T09:45:14;99948.34;;;8.51;100.00
65173;BME280;51758;52.218;5.172;2023-02-21T09:47:43;99829.53;;;7.73;100.00
65173;BME280;51758;52.218;5.172;2023-02-21T09:50:13;99909.69;;;8.12;100.00
65173;BME280;51758;52.218;5.172;2023-02-21T09:52:41;99933.59;;;8.58;100.00
65173;BME280;51758;52.218;5.172;2023-02-21T09:55:19;99931.75;;;8.52;100.00
65173;BME280;51758;52.218;5.172;2023-02-21T09:57:48;99926.59;;;8.59;100.00
65173;BME280;51758;52.218;5.172;2023-02-21T10:00:18;99917.03;;;8.66;100.00
65173;BME280;51758;52.218;5.172;2023-02-21T10:02:55;99781.78;;;7.74;100.00
65173;BME280;51758;52.218;5.172;2023-02-21T10:05:32;99890.63;;;8.41;100.00
65173;BME280;51758;52.218;5.172;2023-02-21T10:08:08;99907.06;;;8.70;100.00
65173;BME280;51758;52.218;5.172;2023-02-21T10:10:44;99805.13;;;8.10;100.00
65173;BME280;51758;52.218;5.172;2023-02-21T10:13:22;99900.19;;;8.83;100.00
65173;BME280;51758;52.218;5.172;2023-02-21T10:15:58;99911.22;;;8.85;100.00
65173;BME280;51758;52.218;5.172;2023-02-21T10:18:33;99906.19;;;8.84;100.00
65173;BME280;51758;52.218;5.172;2023-02-21T10:21:11;99914.22;;;8.89;100.00
65173;BME280;51758;52.218;5.172;2023-02-21T10:23:42;99912.69;;;9.01;100.00
65173;BME280;51758;52.218;5.172;2023-02-21T10:26:17;99917.53;;;9.04;100.00
65173;BME280;51758;52.218;5.172;2023-02-21T10:28:46;99919.06;;;8.92;100.00
65173;BME280;51758;52.218;5.172;2023-02-21T10:31:19;99938.97;;;8.78;100.00
65173;BME280;51758;52.218;5.172;2023-02-21T10:33:50;99919.03;;;8.85;100.00
65173;BME280;51758;52.218;5.172;2023-02-21T10:36:20;99939.94;;;8.98;100.00
65173;BME280;51758;52.218;5.172;2023-02-21T10:38:53;99889.19;;;8.60;100.00
65173;BME280;51758;52.218;5.172;2023-02-21T10:41:26;99958.88;;;8.86;100.00
65173;BME280;51758;52.218;5.172;2023-02-21T10:43:59;99954.03;;;8.61;100.00
65173;BME280;51758;52.218;5.172;2023-02-21T10:46:32;99963.81;;;8.81;100.00
65173;BME280;51758;52.218;5.172;2023-02-21T10:49:16;99966.56;;;8.73;100.00
65173;BME280;51758;52.218;5.172;2023-02-21T10:51:45;99955.88;;;8.89;100.00
65173;BME280;51758;52.218;5.172;2023-02-21T10:54:18;99961.75;;;8.97;100.00
65173;BME280;51758;52.218;5.172;2023-02-21T10:56:49;99964.47;;;8.89;100.00
65173;BME280;51758;52.218;5.172;2023-02-21T10:59:20;99959.84;;;9.13;100.00
65173;BME280;51758;52.218;5.172;2023-02-21T11:01:49;99970.03;;;9.08;100.00
65173;BME280;51758;52.218;5.172;2023-02-21T11:04:24;99976.00;;;9.02;100.00
65173;BME280;51758;52.218;5.172;2023-02-21T11:06:55;99976.25;;;9.07;100.00
65173;BME280;51758;52.218;5.172;2023-02-21T11:09:31;99978.38;;;8.96;100.00
65173;BME280;51758;52.218;5.172;2023-02-21T11:12:04;99986.59;;;9.00;100.00
65173;BME280;51758;52.218;5.172;2023-02-21T11:14:33;99986.03;;;9.05;100.00
65173;BME280;51758;52.218;5.172;2023-02-21T11:17:05;99985.50;;;9.16;100.00
65173;BME280;51758;52.218;5.172;2023-02-21T11:19:52;99973.88;;;9.12;100.00
65173;BME280;51758;52.218;5.172;2023-02-21T11:22:22;99990.50;;;9.11;100.00
65173;BME280;51758;52.218;5.172;2023-02-21T11:24:55;99989.59;;;9.25;100.00
65173;BME280;51758;52.218;5.172;2023-02-21T11:27:27;99924.84;;;8.66;100.00
65173;BME280;51758;52.218;5.172;2023-02-21T11:29:56;99986.56;;;8.93;100.00
65173;BME280;51758;52.218;5.172;2023-02-21T11:32:28;100002.53;;;9.12;100.00
65173;BME280;51758;52.218;5.172;2023-02-21T11:35:01;99998.75;;;8.93;100.00
65173;BME280;51758;52.218;5.172;2023-02-21T11:37:30;99999.59;;;9.00;100.00
65173;BME280;51758;52.218;5.172;2023-02-21T11:39:58;99998.44;;;9.03;100.00
65173;BME280;51758;52.218;5.172;2023-02-21T11:42:31;99978.19;;;8.98;100.00
65173;BME280;51758;52.218;5.172;2023-02-21T11:45:12;100000.28;;;9.09;100.00
65173;BME280;51758;52.218;5.172;2023-02-21T11:47:45;100004.06;;;9.06;100.00
65173;BME280;51758;52.218;5.172;2023-02-21T11:50:21;100009.28;;;9.06;100.00
65173;BME280;51758;52.218;5.172;2023-02-21T11:52:59;100001.19;;;8.94;100.00
65173;BME280;51758;52.218;5.172;2023-02-21T11:55:28;100014.81;;;8.96;100.00
65173;BME280;51758;52.218;5.172;2023-02-21T11:58:13;99986.47;;;9.08;100.00
65173;BME280;51758;52.218;5.172;2023-02-21T12:00:46;99991.69;;;9.08;100.00
65173;BME280;51758;52.218;5.172;2023-02-21T12:03:55;99937.72;;;8.74;100.00
65173;BME280;51758;52.218;5.172;2023-02-21T12:06:33;100017.28;;;9.05;100.00
65173;BME280;51758;52.218;5.172;2023-02-21T12:09:07;99991.44;;;9.03;100.00
65173;BME280;51758;52.218;5.172;2023-02-21T12:11:48;99988.53;;;8.91;100.00
65173;BME280;51758;52.218;5.172;2023-02-21T12:14:31;99982.47;;;9.12;100.00
65173;BME280;51758;52.218;5.172;2023-02-21T12:17:11;99986.56;;;8.93;100.00
65173;BME280;51758;52.218;5.172;2023-02-21T12:19:54;99988.38;;;8.99;100.00
65173;BME280;51758;52.218;5.172;2023-02-21T12:22:39;99975.47;;;9.13;100.00
65173;BME280;51758;52.218;5.172;2023-02-21T12:25:15;99973.28;;;9.10;100.00
65173;BME280;51758;52.218;5.172;2023-02-21T12:27:51;99955.88;;;8.89;100.00
65173;BME280;51758;52.218;5.172;2023-02-21T12:30:38;99961.13;;;8.95;100.00
65173;BME280;51758;52.218;5.172;2023-02-21T12:33:20;99952.97;;;8.77;100.00
65173;BME280;51758;52.218;5.172;2023-02-21T12:36:12;99953.78;;;8.78;100.00
65173;BME280;51758;52.218;5.172;2023-02-21T12:38:53;99942.38;;;8.79;100.00
65173;BME280;51758;52.218;5.172;2023-02-21T12:41:40;99923.59;;;8.83;100.00
65173;BME280;51758;52.218;5.172;2023-02-21T12:44:12;99912.22;;;8.91;100.00
65173;BME280;51758;52.218;5.172;2023-02-21T12:46:49;99763.63;;;8.02;100.00
65173;BME280;51758;52.218;5.172;2023-02-21T12:49:22;99842.94;;;8.62;100.00
65173;BME280;51758;52.218;5.172;2023-02-21T12:51:56;99881.88;;;8.98;100.00
65173;BME280;51758;52.218;5.172;2023-02-21T12:54:36;99858.50;;;9.11;100.00
65173;BME280;51758;52.218;5.172;2023-02-21T12:57:06;99831.41;;;8.99;100.00
65173;BME280;51758;52.218;5.172;2023-02-21T12:59:45;99862.13;;;9.17;100.00
65173;BME280;51758;52.218;5.172;2023-02-21T13:02:23;99832.31;;;9.26;100.00
65173;BME280;51758;52.218;5.172;2023-02-21T13:04:56;99853.44;;;9.03;100.00
65173;BME280;51758;52.218;5.172;2023-02-21T13:07:35;99842.66;;;9.13;100.00
65173;BME280;51758;52.218;5.172;2023-02-21T13:10:06;99838.94;;;9.28;100.00
65173;BME280;51758;52.218;5.172;2023-02-21T13:12:45;99874.06;;;9.05;100.00
65173;BME280;51758;52.218;5.172;2023-02-21T13:15:18;99847.16;;;8.91;100.00
65173;BME280;51758;52.218;5.172;2023-02-21T13:17:57;99854.25;;;9.04;100.00
65173;BME280;51758;52.218;5.172;2023-02-21T13:20:31;99854.59;;;8.94;100.00
65173;BME280;51758;52.218;5.172;2023-02-21T13:23:02;99834.78;;;8.99;100.00
65173;BME280;51758;52.218;5.172;2023-02-21T13:25:33;99846.13;;;8.85;100.00
65173;BME280;51758;52.218;5.172;2023-02-21T13:28:08;99837.97;;;8.95;100.00
65173;BME280;51758;52.218;5.172;2023-02-21T13:30:45;99843.53;;;8.85;100.00
65173;BME280;51758;52.218;5.172;2023-02-21T13:33:27;99827.31;;;8.90;100.00